createdAt,value
2018-06-20T00:05:01.943Z,3.83
2018-06-20T00:10:04.722Z,4.03
2018-06-20T00:15:07.343Z,3.90
2018-06-20T00:20:09.996Z,3.90
2018-06-20T00:25:12.647Z,3.40
2018-06-20T00:30:15.271Z,4.00
2018-06-20T00:35:17.874Z,4.00
2018-06-20T00:40:20.423Z,3.70
2018-06-20T00:45:23.043Z,3.80
2018-06-20T00:50:25.662Z,4.00
2018-06-20T00:55:34.143Z,4.33
2018-06-20T01:00:37.272Z,3.93
2018-06-20T01:05:39.813Z,4.13
2018-06-20T01:10:42.466Z,4.30
2018-06-20T01:15:45.067Z,4.23
2018-06-20T01:20:47.677Z,4.53
2018-06-20T01:25:51.063Z,4.60
2018-06-20T01:30:53.685Z,4.40
2018-06-20T01:35:56.204Z,4.50
2018-06-20T01:40:58.834Z,4.70
2018-06-20T01:46:01.422Z,5.20
2018-06-20T01:51:04.026Z,5.00
2018-06-20T01:56:06.945Z,4.57
2018-06-20T02:01:09.655Z,5.07
2018-06-20T02:06:12.300Z,5.23
2018-06-20T02:11:15.031Z,4.97
2018-06-20T02:16:17.625Z,4.93
2018-06-20T02:21:20.227Z,5.13
2018-06-20T02:26:22.950Z,5.60
2018-06-20T02:31:25.642Z,4.80
2018-06-20T02:36:31.169Z,5.40
2018-06-20T02:41:34.390Z,5.10
2018-06-20T02:46:37.002Z,4.53
2018-06-20T02:51:39.635Z,5.07
2018-06-20T02:56:42.239Z,5.00
2018-06-20T03:01:44.863Z,5.40
2018-06-20T03:06:47.478Z,5.03
2018-06-20T03:11:50.096Z,5.37
2018-06-20T03:16:52.698Z,6.13
2018-06-20T03:21:55.327Z,5.83
2018-06-20T03:26:57.938Z,5.50
2018-06-20T03:32:00.594Z,5.93
2018-06-20T03:37:03.249Z,5.47
2018-06-20T03:42:05.863Z,5.40
2018-06-20T03:47:08.454Z,5.57
2018-06-20T03:52:11.055Z,5.50
2018-06-20T03:57:13.652Z,5.40
2018-06-20T04:02:16.322Z,5.10
2018-06-20T04:07:18.975Z,5.10
2018-06-20T04:12:21.615Z,5.77
2018-06-20T04:17:24.206Z,4.73
2018-06-20T04:22:26.819Z,5.60
2018-06-20T04:27:29.452Z,5.90
2018-06-20T04:32:32.386Z,5.27
2018-06-20T04:37:34.995Z,4.80
2018-06-20T04:42:37.599Z,4.77
2018-06-20T04:47:40.250Z,4.73
2018-06-20T04:52:43.847Z,4.80
2018-06-20T04:57:46.462Z,4.63
2018-06-20T05:02:49.085Z,4.37
2018-06-20T05:07:51.695Z,4.43
2018-06-20T05:12:55.590Z,4.50
2018-06-20T05:17:58.227Z,4.57
2018-06-20T05:23:00.987Z,4.80
2018-06-20T05:28:03.698Z,5.17
2018-06-20T05:33:06.336Z,4.90
2018-06-20T05:38:08.964Z,6.27
2018-06-20T05:43:11.887Z,6.30
2018-06-20T05:48:14.520Z,6.90
2018-06-20T05:53:17.113Z,6.93
2018-06-20T05:58:19.708Z,7.07
2018-06-20T06:03:22.906Z,6.40
2018-06-20T06:08:25.499Z,6.23
2018-06-20T06:13:28.088Z,6.40
2018-06-20T06:18:30.721Z,5.83
2018-06-20T06:23:33.316Z,5.97
2018-06-20T06:28:35.927Z,6.40
2018-06-20T06:33:38.687Z,5.50
2018-06-20T06:38:41.330Z,6.07
2018-06-20T06:43:44.818Z,5.50
2018-06-20T06:48:47.424Z,6.00
2018-06-20T06:53:50.036Z,5.87
2018-06-20T06:58:52.823Z,5.43
2018-06-20T07:03:55.438Z,5.73
2018-06-20T07:08:58.749Z,6.20
2018-06-20T07:14:01.377Z,5.97
2018-06-20T07:19:03.979Z,4.90
2018-06-20T07:24:06.622Z,5.47
2018-06-20T07:29:09.368Z,5.60
2018-06-20T07:34:12.215Z,5.40
2018-06-20T07:39:15.032Z,4.80
2018-06-20T07:44:17.658Z,5.10
2018-06-20T07:49:20.259Z,4.60
2018-06-20T07:54:22.879Z,4.87
2018-06-20T07:59:31.655Z,4.00
2018-06-20T08:04:40.011Z,3.90
2018-06-20T08:09:48.118Z,3.73
2018-06-20T08:14:56.850Z,4.60
2018-06-20T08:20:00.569Z,4.03
2018-06-20T08:25:05.419Z,3.80
2018-06-20T08:30:08.423Z,3.70
2018-06-20T08:35:11.047Z,4.23
2018-06-20T08:40:13.611Z,4.10
2018-06-20T08:45:16.154Z,3.90
2018-06-20T08:50:18.846Z,3.70
2018-06-20T08:55:21.459Z,2.93
2018-06-20T09:00:29.690Z,2.60
2018-06-20T09:05:38.095Z,2.80
2018-06-20T09:10:46.377Z,2.83
2018-06-20T09:15:54.612Z,3.03
2018-06-20T09:20:57.250Z,2.87
2018-06-20T09:25:59.859Z,2.97
2018-06-20T09:31:02.594Z,2.83
2018-06-20T09:36:05.198Z,2.70
2018-06-20T09:41:07.818Z,2.57
2018-06-20T09:46:10.491Z,2.30
2018-06-20T09:51:13.115Z,2.13
2018-06-20T09:56:15.806Z,2.23
2018-06-20T10:01:24.212Z,2.20
2018-06-20T10:06:32.720Z,2.43
2018-06-20T10:11:40.929Z,2.40
2018-06-20T10:16:43.650Z,1.77
2018-06-20T10:21:46.274Z,1.47
2018-06-20T10:26:48.911Z,1.60
2018-06-20T10:31:51.548Z,1.60
2018-06-20T10:36:54.187Z,1.47
2018-06-20T10:41:56.786Z,1.50
2018-06-20T10:47:05.123Z,1.40
2018-06-20T10:52:09.052Z,1.70
2018-06-20T10:57:17.439Z,1.42
2018-06-20T11:02:25.982Z,1.45
2018-06-20T11:07:34.264Z,1.40
2018-06-20T11:12:42.461Z,1.65
2018-06-20T11:17:45.364Z,1.62
2018-06-20T11:22:48.943Z,1.60
2018-06-20T11:27:51.806Z,1.50
2018-06-20T11:32:54.599Z,1.40
2018-06-20T11:37:57.247Z,1.30
2018-06-20T11:42:59.901Z,1.12
2018-06-20T11:48:02.593Z,1.50
2018-06-20T11:53:07.732Z,1.50
2018-06-20T11:58:16.831Z,1.32
2018-06-20T12:04:29.923Z,1.30
2018-06-20T12:09:38.241Z,1.47
2018-06-20T12:14:46.653Z,1.45
2018-06-20T12:19:54.870Z,1.42
2018-06-20T12:25:03.348Z,1.42
2018-06-20T12:30:11.718Z,1.30
2018-06-20T12:35:20.119Z,1.60
2018-06-20T12:40:27.280Z,1.50
2018-06-20T12:45:29.958Z,1.67
2018-06-20T12:50:32.766Z,1.40
2018-06-20T12:55:35.425Z,1.40
2018-06-20T13:00:38.095Z,2.05
2018-06-20T13:05:40.780Z,1.70
2018-06-20T13:10:43.412Z,1.62
2018-06-20T13:15:46.031Z,1.60
2018-06-20T13:20:48.662Z,1.55
2018-06-20T13:25:51.976Z,1.47
2018-06-20T13:31:00.088Z,1.45
2018-06-20T13:37:10.188Z,1.60
2018-06-20T13:42:18.443Z,1.45
2018-06-20T13:47:26.759Z,1.52
2018-06-20T13:52:29.367Z,2.00
2018-06-20T13:57:32.066Z,1.67
2018-06-20T14:02:34.707Z,1.57
2018-06-20T14:07:37.399Z,1.60
2018-06-20T14:12:40.274Z,1.65
2018-06-20T14:17:43.028Z,1.82
2018-06-20T14:22:45.694Z,1.70
2018-06-20T14:27:48.332Z,1.87
2018-06-20T14:32:56.623Z,1.50
2018-06-20T14:38:04.834Z,1.67
2018-06-20T14:43:13.068Z,1.60
2018-06-20T14:48:15.694Z,1.45
2018-06-20T14:53:18.288Z,1.55
2018-06-20T14:58:20.887Z,1.80
2018-06-20T15:03:23.519Z,1.70
2018-06-20T15:08:26.132Z,1.62
2018-06-20T15:13:32.995Z,1.40
2018-06-20T15:18:37.142Z,1.50
2018-06-20T15:23:39.766Z,1.60
2018-06-20T15:28:48.083Z,1.52
2018-06-20T15:33:56.307Z,1.70
2018-06-20T15:38:58.943Z,1.40
2018-06-20T15:44:01.587Z,1.60
2018-06-20T15:49:04.867Z,1.60
2018-06-20T15:54:07.467Z,1.72
2018-06-20T15:59:10.074Z,1.50
2018-06-20T16:04:12.727Z,1.60
2018-06-20T16:09:21.908Z,1.67
2018-06-20T16:14:24.527Z,1.70
2018-06-20T16:19:32.795Z,1.50
2018-06-20T16:24:40.987Z,1.70
2018-06-20T16:29:49.233Z,1.50
2018-06-20T16:34:51.839Z,1.70
2018-06-20T16:39:54.628Z,1.52
2018-06-20T16:44:57.259Z,1.80
2018-06-20T16:49:59.886Z,1.80
2018-06-20T16:55:03.518Z,2.95
2018-06-20T17:00:06.462Z,2.08
2018-06-20T17:05:09.553Z,3.05
2018-06-20T17:10:12.314Z,1.60
2018-06-20T17:15:20.658Z,1.37
2018-06-20T17:20:29.155Z,1.60
2018-06-20T17:25:33.164Z,1.62
2018-06-20T17:30:35.850Z,1.82
2018-06-20T17:35:38.543Z,1.63
2018-06-20T17:40:41.452Z,1.90
2018-06-20T17:45:44.100Z,1.83
2018-06-20T17:50:46.772Z,1.40
2018-06-20T17:55:49.512Z,1.90
2018-06-20T18:00:58.100Z,2.20
2018-06-20T18:06:06.379Z,1.77
2018-06-20T18:11:10.841Z,1.63
2018-06-20T18:16:19.075Z,1.87
2018-06-20T18:21:21.727Z,1.67
2018-06-20T18:26:24.471Z,1.90
2018-06-20T18:31:27.074Z,1.73
2018-06-20T18:36:29.719Z,1.83
2018-06-20T18:41:32.318Z,1.60
2018-06-20T18:46:34.960Z,2.07
2018-06-20T18:51:37.646Z,2.23
2018-06-20T18:56:40.515Z,2.20
2018-06-20T19:01:48.811Z,2.30
2018-06-20T19:06:57.181Z,2.33
2018-06-20T19:11:59.999Z,2.10
2018-06-20T19:17:02.786Z,2.20
2018-06-20T19:22:05.744Z,2.27
2018-06-20T19:27:08.403Z,2.20
2018-06-20T19:32:11.802Z,2.70
2018-06-20T19:37:14.407Z,2.97
2018-06-20T19:42:17.155Z,3.10
2018-06-20T19:47:19.787Z,2.97
2018-06-20T19:52:22.415Z,3.47
2018-06-20T19:57:24.962Z,3.23
2018-06-20T20:02:27.586Z,2.90
2018-06-20T20:07:30.286Z,2.90
2018-06-20T20:12:32.973Z,2.90
2018-06-20T20:17:35.583Z,2.80
2018-06-20T20:22:38.284Z,2.93
2018-06-20T20:27:40.908Z,3.03
2018-06-20T20:32:43.526Z,3.00
2018-06-20T20:37:46.146Z,2.70
2018-06-20T20:42:48.836Z,3.00
2018-06-20T20:47:51.495Z,3.10
2018-06-20T20:52:54.117Z,3.10
2018-06-20T20:57:56.814Z,3.30
2018-06-20T21:02:59.489Z,3.13
2018-06-20T21:08:02.196Z,3.03
2018-06-20T21:13:04.861Z,3.20
2018-06-20T21:18:07.507Z,3.70
2018-06-20T21:23:10.147Z,3.40
2018-06-20T21:28:12.791Z,3.30
2018-06-20T21:33:16.226Z,3.33
2018-06-20T21:38:18.873Z,3.20
2018-06-20T21:43:21.435Z,3.80
2018-06-20T21:48:24.078Z,3.00
2018-06-20T21:53:26.767Z,3.27
2018-06-20T21:58:29.364Z,3.47
2018-06-20T22:03:31.987Z,3.30
2018-06-20T22:08:34.673Z,3.63
2018-06-20T22:13:37.303Z,3.20
2018-06-20T22:18:39.879Z,3.40
2018-06-20T22:23:43.213Z,3.13
2018-06-20T22:28:46.775Z,2.97
2018-06-20T22:33:49.396Z,3.40
2018-06-20T22:38:52.026Z,3.50
2018-06-20T22:43:54.610Z,3.00
2018-06-20T22:48:57.211Z,3.27
2018-06-20T22:53:59.810Z,3.30
2018-06-20T22:59:02.427Z,3.10
2018-06-20T23:04:05.131Z,3.00
2018-06-20T23:09:09.182Z,3.50
2018-06-20T23:14:11.995Z,3.27
2018-06-20T23:19:15.229Z,3.23
2018-06-20T23:24:17.919Z,3.30
2018-06-20T23:29:20.527Z,3.80
2018-06-20T23:34:23.158Z,3.10
2018-06-20T23:39:25.762Z,3.43
2018-06-20T23:44:28.379Z,3.30
2018-06-20T23:49:31.074Z,3.07
2018-06-20T23:54:33.774Z,3.63
2018-06-20T23:59:36.387Z,3.40
